createdAt,value
2019-02-09T00:01:40.535Z,99837.30
2019-02-09T00:04:49.124Z,99845.33
2019-02-09T00:07:57.918Z,99840.04
2019-02-09T00:11:16.687Z,99827.48
2019-02-09T00:14:25.367Z,99825.77
2019-02-09T00:17:33.961Z,99820.48
2019-02-09T00:20:42.599Z,99819.00
2019-02-09T00:23:52.182Z,99815.22
2019-02-09T00:27:00.686Z,99799.73
2019-02-09T00:30:10.100Z,99803.70
2019-02-09T00:33:28.855Z,99803.95
2019-02-09T00:36:37.550Z,99787.78
2019-02-09T00:39:46.125Z,99780.43
2019-02-09T00:42:54.681Z,99776.86
2019-02-09T00:46:03.190Z,99783.41
2019-02-09T00:49:11.776Z,99769.21
2019-02-09T00:52:30.586Z,99761.10
2019-02-09T00:55:39.098Z,99759.81
2019-02-09T00:58:47.669Z,99753.96
2019-02-09T01:01:56.236Z,99753.25
2019-02-09T01:05:05.630Z,99743.00
2019-02-09T01:08:15.821Z,99747.76
2019-02-09T01:11:24.395Z,99732.76
2019-02-09T01:14:33.177Z,99744.94
2019-02-09T01:17:41.851Z,99732.76
2019-02-09T01:20:50.447Z,99735.64
2019-02-09T01:24:09.191Z,99726.17
2019-02-09T01:27:17.797Z,99723.05
2019-02-09T01:30:27.444Z,99733.69
2019-02-09T01:33:36.058Z,99723.92
2019-02-09T01:36:55.068Z,99734.19
2019-02-09T01:40:04.271Z,99716.06
2019-02-09T01:43:23.082Z,99725.92
2019-02-09T01:46:42.546Z,99719.98
2019-02-09T01:49:51.030Z,99712.03
2019-02-09T01:52:59.929Z,99702.88
2019-02-09T01:56:10.112Z,99694.46
2019-02-09T01:59:18.664Z,99691.17
2019-02-09T02:02:28.363Z,99691.24
2019-02-09T02:05:37.175Z,99686.94
2019-02-09T02:08:56.169Z,99672.70
2019-02-09T02:12:05.260Z,99679.54
2019-02-09T02:15:16.973Z,99679.41
2019-02-09T02:18:25.472Z,99677.78
2019-02-09T02:21:33.977Z,99670.02
2019-02-09T02:24:43.381Z,99654.20
2019-02-09T02:27:51.940Z,99662.89
2019-02-09T02:31:00.545Z,99664.48
2019-02-09T02:34:09.096Z,99660.77
2019-02-09T02:37:17.603Z,99634.51
2019-02-09T02:40:36.630Z,99622.98
2019-02-09T02:43:45.275Z,99626.81
2019-02-09T02:46:52.282Z,99629.46
2019-02-09T02:50:00.834Z,99607.94
2019-02-09T02:53:09.410Z,99609.77
2019-02-09T02:56:18.073Z,99601.64
2019-02-09T02:59:26.633Z,99587.08
2019-02-09T03:02:35.241Z,99583.71
2019-02-09T03:05:54.162Z,99586.38
2019-02-09T03:09:13.420Z,99574.54
2019-02-09T03:12:22.106Z,99571.56
2019-02-09T03:15:31.819Z,99569.66
2019-02-09T03:18:41.311Z,99569.31
2019-02-09T03:21:50.183Z,99573.54
2019-02-09T03:24:58.800Z,99575.71
2019-02-09T03:28:07.528Z,99573.78
2019-02-09T03:31:16.414Z,99571.73
2019-02-09T03:34:24.978Z,99564.97
2019-02-09T03:37:33.630Z,99558.30
2019-02-09T03:40:42.182Z,99567.64
2019-02-09T03:43:50.762Z,99564.66
2019-02-09T03:47:09.626Z,99555.47
2019-02-09T03:50:19.016Z,99548.77
2019-02-09T03:53:37.735Z,99547.23
2019-02-09T03:56:46.327Z,99540.14
2019-02-09T03:59:54.923Z,99540.01
2019-02-09T04:03:04.001Z,99543.07
2019-02-09T04:06:12.558Z,99545.66
2019-02-09T04:09:21.133Z,99525.12
2019-02-09T04:12:29.718Z,99553.84
2019-02-09T04:15:38.418Z,99547.59
2019-02-09T04:18:46.989Z,99536.41
2019-02-09T04:22:05.935Z,99544.55
2019-02-09T04:25:16.017Z,99542.30
2019-02-09T04:28:24.691Z,99538.07
2019-02-09T04:31:33.242Z,99528.77
2019-02-09T04:34:41.834Z,99519.63
2019-02-09T04:37:50.516Z,99507.27
2019-02-09T04:51:50.449Z,99514.88
2019-02-09T04:54:59.591Z,99523.37
2019-02-09T04:58:08.170Z,99519.33
2019-02-09T05:01:27.088Z,99515.16
2019-02-09T05:04:35.681Z,99517.00
2019-02-09T05:07:44.338Z,99529.84
2019-02-09T05:10:53.003Z,99520.95
2019-02-09T05:14:01.608Z,99533.36
2019-02-09T05:17:10.180Z,99518.84
2019-02-09T05:20:22.032Z,99507.27
2019-02-09T05:23:40.843Z,99505.97
2019-02-09T05:26:49.393Z,99505.39
2019-02-09T05:29:57.958Z,99517.26
2019-02-09T05:33:06.608Z,99516.53
2019-02-09T05:36:15.156Z,99492.30
2019-02-09T05:39:23.841Z,99490.75
2019-02-09T05:42:42.679Z,99489.28
2019-02-09T05:45:51.381Z,99501.08
2019-02-09T05:49:00.005Z,99493.95
2019-02-09T05:52:08.552Z,99480.66
2019-02-09T05:55:17.965Z,99487.28
2019-02-09T05:58:26.509Z,99497.09
2019-02-09T06:01:35.172Z,99484.12
2019-02-09T06:04:43.737Z,99485.27
2019-02-09T06:07:52.200Z,99483.61
2019-02-09T06:11:00.872Z,99477.13
2019-02-09T06:14:09.591Z,99493.20
2019-02-09T06:17:28.314Z,99509.34
2019-02-09T06:20:38.389Z,99510.06
2019-02-09T06:23:46.955Z,99517.47
2019-02-09T06:26:55.398Z,99524.52
2019-02-09T06:30:03.996Z,99526.14
2019-02-09T06:33:22.864Z,99515.16
2019-02-09T06:36:31.406Z,99519.30
2019-02-09T06:39:39.979Z,99536.70
2019-02-09T06:42:48.769Z,99519.52
2019-02-09T06:45:57.342Z,99504.13
2019-02-09T06:49:05.919Z,99523.88
2019-02-09T06:52:14.546Z,99527.47
2019-02-09T06:55:33.404Z,99520.35
2019-02-09T06:58:41.977Z,99531.60
2019-02-09T07:01:50.531Z,99546.73
2019-02-09T07:04:59.092Z,99525.62
2019-02-09T07:08:08.092Z,99525.80
2019-02-09T07:11:16.560Z,99530.22
2019-02-09T07:14:25.034Z,99529.40
2019-02-09T07:17:43.924Z,99529.17
2019-02-09T07:20:53.629Z,99536.27
2019-02-09T07:24:02.223Z,99532.74
2019-02-09T07:27:20.867Z,99532.76
2019-02-09T07:30:29.994Z,99538.50
2019-02-09T07:33:38.570Z,99540.98
2019-02-09T07:36:45.590Z,99548.67
2019-02-09T07:39:54.201Z,99551.50
2019-02-09T07:43:02.856Z,99558.72
2019-02-09T07:46:11.431Z,99565.38
2019-02-09T07:49:19.980Z,99551.36
2019-02-09T07:52:28.641Z,99573.19
2019-02-09T07:55:47.409Z,99557.81
2019-02-09T07:58:55.909Z,99563.64
2019-02-09T08:02:04.938Z,99574.42
2019-02-09T08:05:13.873Z,99578.30
2019-02-09T08:08:22.465Z,99574.96
2019-02-09T08:11:31.100Z,99579.42
2019-02-09T08:14:39.673Z,99590.14
2019-02-09T08:17:48.249Z,99597.69
2019-02-09T08:20:56.876Z,99574.09
2019-02-09T08:24:15.579Z,99573.41
2019-02-09T08:27:24.796Z,99592.58
2019-02-09T08:30:37.877Z,99592.17
2019-02-09T08:33:46.330Z,99593.95
2019-02-09T08:36:54.909Z,99595.27
2019-02-09T08:40:03.448Z,99595.17
2019-02-09T08:43:12.009Z,99597.02
2019-02-09T08:46:30.931Z,99594.20
2019-02-09T08:49:39.472Z,99597.52
2019-02-09T08:52:48.093Z,99600.91
2019-02-09T08:55:56.816Z,99599.55
2019-02-09T08:59:05.381Z,99618.17
2019-02-09T09:02:20.396Z,99611.87
2019-02-09T09:05:24.397Z,99620.20
2019-02-09T09:08:32.987Z,99613.16
2019-02-09T09:11:51.931Z,99608.55
2019-02-09T09:15:00.396Z,99629.64
2019-02-09T09:18:09.526Z,99625.75
2019-02-09T09:21:18.179Z,99633.55
2019-02-09T09:24:26.733Z,99642.77
2019-02-09T09:27:35.314Z,99632.24
2019-02-09T09:30:43.928Z,99639.74
2019-02-09T09:33:52.560Z,99632.84
2019-02-09T09:37:01.120Z,99619.87
2019-02-09T09:40:24.600Z,99625.61
2019-02-09T09:43:34.154Z,99642.76
2019-02-09T09:46:53.065Z,99630.59
2019-02-09T09:50:01.635Z,99643.70
2019-02-09T09:53:10.322Z,99643.97
2019-02-09T09:56:18.880Z,99658.87
2019-02-09T09:59:27.362Z,99650.78
2019-02-09T10:02:36.683Z,99674.75
2019-02-09T10:05:45.515Z,99660.08
2019-02-09T10:08:54.090Z,99666.69
2019-02-09T10:12:02.589Z,99663.59
2019-02-09T10:15:15.973Z,99683.13
2019-02-09T10:18:34.918Z,99694.71
2019-02-09T10:21:43.519Z,99694.20
2019-02-09T10:24:51.985Z,99686.89
2019-02-09T10:28:00.702Z,99688.00
2019-02-09T10:31:09.336Z,99697.83
2019-02-09T10:34:17.923Z,99690.12
2019-02-09T10:37:36.632Z,99677.20
2019-02-09T10:40:45.271Z,99675.25
2019-02-09T10:43:54.056Z,99678.33
2019-02-09T10:47:02.623Z,99682.72
2019-02-09T10:50:18.819Z,99681.66
2019-02-09T10:53:27.455Z,99701.19
2019-02-09T10:56:46.270Z,99675.27
2019-02-09T10:59:55.854Z,99662.64
2019-02-09T11:03:04.867Z,99672.72
2019-02-09T11:06:13.460Z,99673.19
2019-02-09T11:09:24.985Z,99669.03
2019-02-09T11:12:33.529Z,99651.52
2019-02-09T11:15:42.105Z,99669.55
2019-02-09T11:18:52.226Z,99663.08
2019-02-09T11:22:00.823Z,99664.47
2019-02-09T11:25:11.956Z,99662.30
2019-02-09T11:28:20.519Z,99665.41
2019-02-09T11:31:29.121Z,99661.35
2019-02-09T11:34:37.634Z,99672.73
2019-02-09T11:37:46.523Z,99682.34
2019-02-09T11:40:55.266Z,99664.71
2019-02-09T11:44:03.746Z,99669.24
2019-02-09T11:47:12.331Z,99665.06
2019-02-09T11:50:31.563Z,99666.69
2019-02-09T11:53:40.085Z,99682.05
2019-02-09T11:56:48.571Z,99661.45
2019-02-09T11:59:57.168Z,99660.63
2019-02-09T12:03:14.802Z,99678.14
2019-02-09T12:06:18.172Z,99644.63
2019-02-09T12:09:26.668Z,99655.08
2019-02-09T12:12:35.295Z,99651.87
2019-02-09T12:15:43.998Z,99662.56
2019-02-09T12:19:02.756Z,99655.97
2019-02-09T12:22:11.428Z,99666.73
2019-02-09T12:25:27.379Z,99658.72
2019-02-09T12:28:46.110Z,99646.66
2019-02-09T12:31:55.014Z,99660.31
2019-02-09T12:35:03.581Z,99657.66
2019-02-09T12:38:12.822Z,99666.50
2019-02-09T12:41:22.852Z,99688.95
2019-02-09T12:44:32.884Z,99684.67
2019-02-09T12:47:41.388Z,99653.39
2019-02-09T12:50:50.006Z,99662.25
2019-02-09T12:53:58.600Z,99657.27
2019-02-09T12:57:17.505Z,99654.33
2019-02-09T13:00:30.425Z,99639.53
2019-02-09T13:03:38.867Z,99647.09
2019-02-09T13:06:57.678Z,99645.17
2019-02-09T13:10:07.226Z,99670.11
2019-02-09T13:13:15.683Z,99669.55
2019-02-09T13:16:34.554Z,99659.15
2019-02-09T13:19:43.131Z,99665.44
2019-02-09T13:22:52.356Z,99651.13
2019-02-09T13:26:01.011Z,99652.38
2019-02-09T13:29:09.642Z,99690.23
2019-02-09T13:32:18.251Z,99649.52
2019-02-09T13:35:26.850Z,99652.65
2019-02-09T13:38:35.447Z,99655.13
2019-02-09T13:41:44.132Z,99649.20
2019-02-09T13:44:52.798Z,99652.50
2019-02-09T13:48:11.965Z,99667.04
2019-02-09T13:51:31.151Z,99663.26
2019-02-09T13:54:39.713Z,99663.10
2019-02-09T13:57:48.340Z,99657.55
2019-02-09T14:00:57.050Z,99653.00
2019-02-09T14:04:05.695Z,99653.73
2019-02-09T14:07:15.771Z,99666.03
2019-02-09T14:10:25.398Z,99663.89
2019-02-09T14:13:34.082Z,99667.21
2019-02-09T14:16:42.673Z,99665.79
2019-02-09T14:19:51.266Z,99682.45
2019-02-09T14:22:59.983Z,99678.53
2019-02-09T14:26:08.665Z,99675.09
2019-02-09T14:29:17.987Z,99684.84
2019-02-09T14:32:26.749Z,99678.52
2019-02-09T14:35:35.322Z,99696.34
2019-02-09T14:38:43.776Z,99691.56
2019-02-09T14:41:52.690Z,99700.81
2019-02-09T14:45:01.130Z,99710.98
2019-02-09T14:48:09.819Z,99723.69
2019-02-09T14:51:29.829Z,99755.16
2019-02-09T14:54:38.431Z,99775.99
2019-02-09T14:57:46.929Z,99782.11
2019-02-09T15:01:05.994Z,99772.38
2019-02-09T15:04:14.538Z,99769.55
2019-02-09T15:07:23.043Z,99769.48
2019-02-09T15:10:31.611Z,99761.66
2019-02-09T15:13:40.197Z,99768.09
2019-02-09T15:16:53.639Z,99757.75
2019-02-09T15:20:02.088Z,99770.32
2019-02-09T15:23:21.076Z,99762.69
2019-02-09T15:26:29.684Z,99785.31
2019-02-09T15:29:38.306Z,99771.68
2019-02-09T15:32:47.118Z,99780.91
2019-02-09T15:35:55.740Z,99782.50
2019-02-09T15:39:05.713Z,99778.16
2019-02-09T15:42:17.966Z,99785.98
2019-02-09T15:45:26.902Z,99789.36
2019-02-09T15:48:35.458Z,99789.06
2019-02-09T15:51:44.118Z,99791.86
2019-02-09T15:54:52.671Z,99781.20
2019-02-09T15:58:11.615Z,99788.90
2019-02-09T16:01:20.249Z,99802.09
2019-02-09T16:04:28.825Z,99806.70
2019-02-09T16:07:37.396Z,99813.41
2019-02-09T16:10:47.285Z,99816.84
2019-02-09T16:14:07.015Z,99823.67
2019-02-09T16:17:20.036Z,99812.95
2019-02-09T16:20:28.571Z,99822.58
2019-02-09T16:23:37.169Z,99828.16
2019-02-09T16:26:45.715Z,99824.43
2019-02-09T16:29:54.289Z,99823.69
2019-02-09T16:33:03.143Z,99819.21
2019-02-09T16:36:11.726Z,99824.06
2019-02-09T16:39:20.298Z,99836.84
2019-02-09T16:42:39.186Z,99843.61
2019-02-09T16:45:47.745Z,99840.42
2019-02-09T16:48:56.326Z,99842.94
2019-02-09T16:52:05.093Z,99849.25
2019-02-09T16:55:16.352Z,99854.73
2019-02-09T16:58:24.831Z,99861.56
2019-02-09T17:01:33.489Z,99883.34
2019-02-09T17:04:42.082Z,99879.52
2019-02-09T17:07:50.745Z,99876.63
2019-02-09T17:10:59.369Z,99888.45
2019-02-09T17:14:08.289Z,99905.88
2019-02-09T17:17:16.734Z,99893.55
2019-02-09T17:20:25.738Z,99909.69
2019-02-09T17:23:34.497Z,99899.65
2019-02-09T17:26:43.147Z,99909.81
2019-02-09T17:29:51.727Z,99915.75
2019-02-09T17:33:10.580Z,99940.58
2019-02-09T17:36:19.040Z,99924.66
2019-02-09T17:39:27.624Z,99936.72
2019-02-09T17:42:36.185Z,99938.69
2019-02-09T17:45:55.062Z,99935.88
2019-02-09T17:49:03.549Z,99932.06
2019-02-09T17:52:12.721Z,99950.56
2019-02-09T17:55:21.536Z,99949.43
2019-02-09T17:58:30.077Z,99951.25
2019-02-09T18:01:38.795Z,99962.05
2019-02-09T18:04:48.638Z,99952.03
2019-02-09T18:07:57.749Z,99965.72
2019-02-09T18:11:06.626Z,99963.19
2019-02-09T18:14:16.737Z,99961.91
2019-02-09T18:17:25.986Z,99973.64
2019-02-09T18:20:34.655Z,99966.05
2019-02-09T18:23:43.251Z,99976.23
2019-02-09T18:26:51.817Z,99984.83
2019-02-09T18:30:16.798Z,99975.88
2019-02-09T18:33:25.365Z,99981.05
2019-02-09T18:36:33.854Z,99968.73
2019-02-09T18:39:42.586Z,99965.84
2019-02-09T18:42:51.180Z,99981.30
2019-02-09T18:46:10.174Z,99979.05
2019-02-09T18:49:18.917Z,99985.43
2019-02-09T18:52:27.391Z,99989.40
2019-02-09T18:55:35.964Z,99981.23
2019-02-09T18:58:44.413Z,99991.06
2019-02-09T19:01:53.101Z,100001.66
2019-02-09T19:05:12.787Z,99999.90
2019-02-09T19:08:21.259Z,100010.56
2019-02-09T19:11:29.911Z,100012.23
2019-02-09T19:14:48.898Z,100019.78
2019-02-09T19:17:57.592Z,100023.88
2019-02-09T19:21:11.382Z,100029.16
2019-02-09T19:24:19.867Z,100031.34
2019-02-09T19:27:28.448Z,100032.94
2019-02-09T19:30:37.206Z,100032.11
2019-02-09T19:33:45.766Z,100036.45
2019-02-09T19:36:57.561Z,100045.67
2019-02-09T19:40:08.229Z,100048.05
2019-02-09T19:43:20.214Z,100049.25
2019-02-09T19:46:28.852Z,100046.75
2019-02-09T19:49:37.414Z,100047.36
2019-02-09T19:52:46.082Z,100053.84
2019-02-09T19:56:04.978Z,100054.76
2019-02-09T19:59:13.593Z,100051.86
2019-02-09T20:02:22.259Z,100066.23
2019-02-09T20:05:30.973Z,100075.54
2019-02-09T20:08:39.527Z,100069.34
2019-02-09T20:11:48.163Z,100075.35
2019-02-09T20:14:56.670Z,100083.21
2019-02-09T20:18:15.428Z,100082.44
2019-02-09T20:21:24.057Z,100091.04
2019-02-09T20:24:32.637Z,100090.81
2019-02-09T20:27:41.251Z,100090.50
2019-02-09T20:30:49.954Z,100101.03
2019-02-09T20:33:58.413Z,100105.98
2019-02-09T20:37:17.166Z,100123.20
2019-02-09T20:40:38.387Z,100118.04
2019-02-09T20:43:46.964Z,100115.30
2019-02-09T20:46:55.540Z,100119.86
2019-02-09T20:50:05.263Z,100121.62
2019-02-09T20:53:13.963Z,100130.91
2019-02-09T20:56:22.561Z,100124.42
2019-02-09T20:59:31.163Z,100130.47
2019-02-09T21:02:40.015Z,100131.00
2019-02-09T21:05:48.478Z,100135.66
2019-02-09T21:08:57.047Z,100130.69
2019-02-09T21:12:15.995Z,100134.27
2019-02-09T21:15:26.540Z,100137.25
2019-02-09T21:18:35.041Z,100144.02
2019-02-09T21:21:43.607Z,100140.83
2019-02-09T21:24:52.067Z,100142.50
2019-02-09T21:28:00.543Z,100141.14
2019-02-09T21:31:11.946Z,100132.14
2019-02-09T21:34:20.545Z,100139.75
2019-02-09T21:37:30.007Z,100143.70
2019-02-09T21:40:50.158Z,100145.25
2019-02-09T21:44:00.286Z,100153.08
2019-02-09T21:47:08.897Z,100150.19
2019-02-09T21:50:22.627Z,100149.42
2019-02-09T21:53:31.106Z,100162.31
2019-02-09T21:56:39.680Z,100162.09
2019-02-09T21:59:58.519Z,100166.66
2019-02-09T22:03:09.602Z,100169.47
2019-02-09T22:06:28.256Z,100165.89
2019-02-09T22:09:36.834Z,100171.22
2019-02-09T22:12:45.479Z,100166.56
2019-02-09T22:15:53.962Z,100167.19
2019-02-09T22:19:02.722Z,100168.64
2019-02-09T22:22:11.280Z,100165.95
2019-02-09T22:25:30.706Z,100168.02
2019-02-09T22:28:39.277Z,100163.67
2019-02-09T22:31:47.896Z,100176.62
2019-02-09T22:34:56.425Z,100169.00
2019-02-09T22:38:05.661Z,100178.36
2019-02-09T22:41:14.200Z,100168.92
2019-02-09T22:44:22.789Z,100175.44
2019-02-09T22:47:31.355Z,100198.26
2019-02-09T22:50:47.618Z,100177.03
2019-02-09T22:53:56.233Z,100180.28
2019-02-09T22:57:13.696Z,100175.69
2019-02-09T23:00:54.955Z,100178.27
2019-02-09T23:04:40.329Z,100184.20
2019-02-09T23:07:48.882Z,100178.06
2019-02-09T23:11:07.658Z,100172.84
2019-02-09T23:14:16.282Z,100185.69
2019-02-09T23:17:24.849Z,100177.95
2019-02-09T23:20:33.573Z,100180.02
2019-02-09T23:23:42.047Z,100182.91
2019-02-09T23:26:50.557Z,100187.62
2019-02-09T23:30:12.624Z,100185.87
2019-02-09T23:33:23.135Z,100186.64
2019-02-09T23:36:31.407Z,100187.91
2019-02-09T23:39:40.198Z,100190.41
2019-02-09T23:42:49.162Z,100188.44
2019-02-09T23:45:59.461Z,100183.73
2019-02-09T23:49:08.268Z,100183.05
2019-02-09T23:52:16.884Z,100188.33
2019-02-09T23:55:25.564Z,100187.34
2019-02-09T23:58:32.666Z,100175.08
